sensor_id;sensor_type;location;lat;lon;timestamp;temperature;humidity
36552;DHT22;22559;54.176;12.102;2023-05-07T00:01:16;8.70;99.90
36552;DHT22;22559;54.176;12.102;2023-05-07T00:03:42;8.70;99.90
36552;DHT22;22559;54.176;12.102;2023-05-07T00:06:08;8.70;99.90
36552;DHT22;22559;54.176;12.102;2023-05-07T00:08:33;8.70;99.90
36552;DHT22;22559;54.176;12.102;2023-05-07T00:10:59;8.70;99.90
36552;DHT22;22559;54.176;12.102;2023-05-07T00:13:24;8.70;99.90
36552;DHT22;22559;54.176;12.102;2023-05-07T00:15:50;8.80;99.90
36552;DHT22;22559;54.176;12.102;2023-05-07T00:18:16;8.70;99.90
36552;DHT22;22559;54.176;12.102;2023-05-07T00:20:41;8.70;99.90
36552;DHT22;22559;54.176;12.102;2023-05-07T00:23:07;8.70;99.90
36552;DHT22;22559;54.176;12.102;2023-05-07T00:25:32;8.70;99.90
36552;DHT22;22559;54.176;12.102;2023-05-07T00:27:58;8.70;99.90
36552;DHT22;22559;54.176;12.102;2023-05-07T00:30:29;8.70;99.90
36552;DHT22;22559;54.176;12.102;2023-05-07T00:32:54;8.70;99.90
36552;DHT22;22559;54.176;12.102;2023-05-07T00:35:20;8.70;99.90
36552;DHT22;22559;54.176;12.102;2023-05-07T00:37:46;8.70;99.90
36552;DHT22;22559;54.176;12.102;2023-05-07T00:40:11;8.70;99.90
36552;DHT22;22559;54.176;12.102;2023-05-07T00:42:37;8.60;99.90
36552;DHT22;22559;54.176;12.102;2023-05-07T00:45:03;8.50;99.90
36552;DHT22;22559;54.176;12.102;2023-05-07T00:47:29;8.40;99.90
36552;DHT22;22559;54.176;12.102;2023-05-07T00:49:54;8.30;99.90
36552;DHT22;22559;54.176;12.102;2023-05-07T00:52:21;8.30;99.90
36552;DHT22;22559;54.176;12.102;2023-05-07T00:54:49;8.20;99.90
36552;DHT22;22559;54.176;12.102;2023-05-07T00:57:15;8.10;99.90
36552;DHT22;22559;54.176;12.102;2023-05-07T00:59:41;8.20;99.90
36552;DHT22;22559;54.176;12.102;2023-05-07T01:02:07;8.20;99.90
36552;DHT22;22559;54.176;12.102;2023-05-07T01:04:33;8.10;99.90
36552;DHT22;22559;54.176;12.102;2023-05-07T01:06:59;8.10;99.90
36552;DHT22;22559;54.176;12.102;2023-05-07T01:09:27;8.10;99.90
36552;DHT22;22559;54.176;12.102;2023-05-07T01:11:53;8.10;99.90
36552;DHT22;22559;54.176;12.102;2023-05-07T01:14:20;8.10;99.90
36552;DHT22;22559;54.176;12.102;2023-05-07T01:16:47;8.00;99.90
36552;DHT22;22559;54.176;12.102;2023-05-07T01:19:14;8.00;99.90
36552;DHT22;22559;54.176;12.102;2023-05-07T01:21:45;8.00;99.90
36552;DHT22;22559;54.176;12.102;2023-05-07T01:24:12;7.90;99.90
36552;DHT22;22559;54.176;12.102;2023-05-07T01:26:38;7.80;99.90
36552;DHT22;22559;54.176;12.102;2023-05-07T01:29:04;7.70;99.90
36552;DHT22;22559;54.176;12.102;2023-05-07T01:31:30;7.60;99.90
36552;DHT22;22559;54.176;12.102;2023-05-07T01:33:56;7.50;99.90
36552;DHT22;22559;54.176;12.102;2023-05-07T01:36:23;7.40;99.90
36552;DHT22;22559;54.176;12.102;2023-05-07T01:38:54;7.30;99.90
36552;DHT22;22559;54.176;12.102;2023-05-07T01:41:20;7.30;99.90
36552;DHT22;22559;54.176;12.102;2023-05-07T01:43:46;7.20;99.90
36552;DHT22;22559;54.176;12.102;2023-05-07T01:46:12;7.20;99.90
36552;DHT22;22559;54.176;12.102;2023-05-07T01:48:39;7.10;99.90
36552;DHT22;22559;54.176;12.102;2023-05-07T01:51:05;7.00;99.90
36552;DHT22;22559;54.176;12.102;2023-05-07T01:56:04;6.80;99.90
36552;DHT22;22559;54.176;12.102;2023-05-07T01:58:30;6.80;99.90
36552;DHT22;22559;54.176;12.102;2023-05-07T02:00:56;6.70;99.90
36552;DHT22;22559;54.176;12.102;2023-05-07T02:03:21;6.70;99.90
36552;DHT22;22559;54.176;12.102;2023-05-07T02:05:47;6.60;99.90
36552;DHT22;22559;54.176;12.102;2023-05-07T02:08:13;6.60;99.90
36552;DHT22;22559;54.176;12.102;2023-05-07T02:10:38;6.60;99.90
36552;DHT22;22559;54.176;12.102;2023-05-07T02:13:04;6.60;99.90
36552;DHT22;22559;54.176;12.102;2023-05-07T02:15:30;6.60;99.90
36552;DHT22;22559;54.176;12.102;2023-05-07T02:18:07;6.50;99.90
36552;DHT22;22559;54.176;12.102;2023-05-07T02:20:34;6.50;99.90
36552;DHT22;22559;54.176;12.102;2023-05-07T02:23:00;6.40;99.90
36552;DHT22;22559;54.176;12.102;2023-05-07T02:25:26;6.40;99.90
36552;DHT22;22559;54.176;12.102;2023-05-07T02:27:51;6.30;99.90
36552;DHT22;22559;54.176;12.102;2023-05-07T02:30:17;6.40;99.90
36552;DHT22;22559;54.176;12.102;2023-05-07T02:32:43;6.30;99.90
36552;DHT22;22559;54.176;12.102;2023-05-07T02:35:08;6.30;99.90
36552;DHT22;22559;54.176;12.102;2023-05-07T02:37:34;6.20;99.90
36552;DHT22;22559;54.176;12.102;2023-05-07T02:40:00;6.20;99.90
36552;DHT22;22559;54.176;12.102;2023-05-07T02:42:26;6.10;99.90
36552;DHT22;22559;54.176;12.102;2023-05-07T02:44:51;6.10;99.90
36552;DHT22;22559;54.176;12.102;2023-05-07T02:47:17;6.10;99.90
36552;DHT22;22559;54.176;12.102;2023-05-07T02:49:42;6.00;99.90
36552;DHT22;22559;54.176;12.102;2023-05-07T02:52:08;6.00;99.90
36552;DHT22;22559;54.176;12.102;2023-05-07T02:54:34;6.00;99.90
36552;DHT22;22559;54.176;12.102;2023-05-07T02:56:59;6.00;99.90
36552;DHT22;22559;54.176;12.102;2023-05-07T02:59:26;5.90;99.90
36552;DHT22;22559;54.176;12.102;2023-05-07T03:01:51;5.90;99.90
36552;DHT22;22559;54.176;12.102;2023-05-07T03:04:17;5.90;99.90
36552;DHT22;22559;54.176;12.102;2023-05-07T03:06:43;5.90;99.90
36552;DHT22;22559;54.176;12.102;2023-05-07T03:09:09;6.00;99.90
36552;DHT22;22559;54.176;12.102;2023-05-07T03:11:34;6.00;99.90
36552;DHT22;22559;54.176;12.102;2023-05-07T03:14:01;6.00;99.90
36552;DHT22;22559;54.176;12.102;2023-05-07T03:16:27;6.00;99.90
36552;DHT22;22559;54.176;12.102;2023-05-07T03:18:52;6.00;99.90
36552;DHT22;22559;54.176;12.102;2023-05-07T03:21:18;5.90;99.90
36552;DHT22;22559;54.176;12.102;2023-05-07T03:23:44;6.00;99.90
36552;DHT22;22559;54.176;12.102;2023-05-07T03:26:09;6.00;99.90
36552;DHT22;22559;54.176;12.102;2023-05-07T03:28:36;6.10;99.90
36552;DHT22;22559;54.176;12.102;2023-05-07T03:31:02;6.10;99.90
36552;DHT22;22559;54.176;12.102;2023-05-07T03:33:27;6.20;99.90
36552;DHT22;22559;54.176;12.102;2023-05-07T03:35:53;6.20;99.90
36552;DHT22;22559;54.176;12.102;2023-05-07T03:38:19;6.20;99.90
36552;DHT22;22559;54.176;12.102;2023-05-07T03:40:44;6.30;99.90
36552;DHT22;22559;54.176;12.102;2023-05-07T03:43:10;6.30;99.90
36552;DHT22;22559;54.176;12.102;2023-05-07T03:45:35;6.40;99.90
36552;DHT22;22559;54.176;12.102;2023-05-07T03:48:01;6.40;99.90
36552;DHT22;22559;54.176;12.102;2023-05-07T03:50:27;6.40;99.90
36552;DHT22;22559;54.176;12.102;2023-05-07T03:52:52;6.40;99.90
36552;DHT22;22559;54.176;12.102;2023-05-07T03:55:18;6.50;99.90
36552;DHT22;22559;54.176;12.102;2023-05-07T03:57:44;6.50;99.90
36552;DHT22;22559;54.176;12.102;2023-05-07T04:00:10;6.60;99.90
36552;DHT22;22559;54.176;12.102;2023-05-07T04:02:35;6.60;99.90
36552;DHT22;22559;54.176;12.102;2023-05-07T04:05:01;6.60;99.90
36552;DHT22;22559;54.176;12.102;2023-05-07T04:07:27;6.60;99.90
36552;DHT22;22559;54.176;12.102;2023-05-07T04:09:52;6.60;99.90
36552;DHT22;22559;54.176;12.102;2023-05-07T04:12:18;6.70;99.90
36552;DHT22;22559;54.176;12.102;2023-05-07T04:14:44;6.80;99.90
36552;DHT22;22559;54.176;12.102;2023-05-07T04:17:10;7.00;99.90
36552;DHT22;22559;54.176;12.102;2023-05-07T04:19:36;7.20;99.90
36552;DHT22;22559;54.176;12.102;2023-05-07T04:22:01;7.30;99.90
36552;DHT22;22559;54.176;12.102;2023-05-07T04:24:30;7.40;99.90
36552;DHT22;22559;54.176;12.102;2023-05-07T04:26:56;7.50;99.90
36552;DHT22;22559;54.176;12.102;2023-05-07T04:29:21;7.40;99.90
36552;DHT22;22559;54.176;12.102;2023-05-07T04:31:47;7.40;99.90
36552;DHT22;22559;54.176;12.102;2023-05-07T04:34:13;7.50;99.90
36552;DHT22;22559;54.176;12.102;2023-05-07T04:36:39;7.40;99.90
36552;DHT22;22559;54.176;12.102;2023-05-07T04:39:05;7.30;99.90
36552;DHT22;22559;54.176;12.102;2023-05-07T04:41:32;7.20;99.90
36552;DHT22;22559;54.176;12.102;2023-05-07T04:43:57;7.20;99.90
36552;DHT22;22559;54.176;12.102;2023-05-07T04:46:24;7.30;99.90
36552;DHT22;22559;54.176;12.102;2023-05-07T04:48:51;7.30;99.90
36552;DHT22;22559;54.176;12.102;2023-05-07T04:51:16;7.40;99.90
36552;DHT22;22559;54.176;12.102;2023-05-07T04:53:42;7.50;99.90
36552;DHT22;22559;54.176;12.102;2023-05-07T04:56:08;7.60;99.90
36552;DHT22;22559;54.176;12.102;2023-05-07T04:58:34;7.70;99.90
36552;DHT22;22559;54.176;12.102;2023-05-07T05:01:00;7.70;99.90
36552;DHT22;22559;54.176;12.102;2023-05-07T05:03:25;7.70;99.90
36552;DHT22;22559;54.176;12.102;2023-05-07T05:05:51;7.70;99.90
36552;DHT22;22559;54.176;12.102;2023-05-07T05:08:18;7.80;99.90
36552;DHT22;22559;54.176;12.102;2023-05-07T05:10:43;7.90;99.90
36552;DHT22;22559;54.176;12.102;2023-05-07T05:13:09;7.90;99.90
36552;DHT22;22559;54.176;12.102;2023-05-07T05:15:38;8.00;99.90
36552;DHT22;22559;54.176;12.102;2023-05-07T05:18:04;8.10;99.90
36552;DHT22;22559;54.176;12.102;2023-05-07T05:20:29;8.10;99.90
36552;DHT22;22559;54.176;12.102;2023-05-07T05:22:55;8.30;99.90
36552;DHT22;22559;54.176;12.102;2023-05-07T05:25:21;8.40;99.90
36552;DHT22;22559;54.176;12.102;2023-05-07T05:27:46;8.60;99.90
36552;DHT22;22559;54.176;12.102;2023-05-07T05:30:12;8.70;99.90
36552;DHT22;22559;54.176;12.102;2023-05-07T05:32:38;8.80;99.90
36552;DHT22;22559;54.176;12.102;2023-05-07T05:35:04;8.90;99.90
36552;DHT22;22559;54.176;12.102;2023-05-07T05:37:31;9.00;99.90
36552;DHT22;22559;54.176;12.102;2023-05-07T05:39:56;9.00;99.90
36552;DHT22;22559;54.176;12.102;2023-05-07T05:42:22;9.20;99.90
36552;DHT22;22559;54.176;12.102;2023-05-07T05:44:48;9.20;99.90
36552;DHT22;22559;54.176;12.102;2023-05-07T05:47:14;9.30;99.90
36552;DHT22;22559;54.176;12.102;2023-05-07T05:49:39;9.30;99.90
36552;DHT22;22559;54.176;12.102;2023-05-07T05:52:05;9.40;99.90
36552;DHT22;22559;54.176;12.102;2023-05-07T05:54:31;9.40;99.90
36552;DHT22;22559;54.176;12.102;2023-05-07T05:56:56;9.50;99.90
36552;DHT22;22559;54.176;12.102;2023-05-07T05:59:22;9.70;99.90
36552;DHT22;22559;54.176;12.102;2023-05-07T06:01:48;9.80;99.90
36552;DHT22;22559;54.176;12.102;2023-05-07T06:04:14;10.00;99.90
36552;DHT22;22559;54.176;12.102;2023-05-07T06:06:39;10.00;99.90
36552;DHT22;22559;54.176;12.102;2023-05-07T06:09:05;10.10;99.90
36552;DHT22;22559;54.176;12.102;2023-05-07T06:11:31;10.20;99.90
36552;DHT22;22559;54.176;12.102;2023-05-07T06:13:57;10.20;99.90
36552;DHT22;22559;54.176;12.102;2023-05-07T06:16:25;10.30;99.90
36552;DHT22;22559;54.176;12.102;2023-05-07T06:18:50;10.50;99.90
36552;DHT22;22559;54.176;12.102;2023-05-07T06:21:16;10.50;99.90
36552;DHT22;22559;54.176;12.102;2023-05-07T06:23:42;10.50;99.90
36552;DHT22;22559;54.176;12.102;2023-05-07T06:26:07;10.60;99.90
36552;DHT22;22559;54.176;12.102;2023-05-07T06:28:33;10.60;99.90
36552;DHT22;22559;54.176;12.102;2023-05-07T06:31:20;10.60;99.90
36552;DHT22;22559;54.176;12.102;2023-05-07T06:33:49;10.70;99.90
36552;DHT22;22559;54.176;12.102;2023-05-07T06:36:15;10.70;99.90
36552;DHT22;22559;54.176;12.102;2023-05-07T06:38:41;10.80;99.90
36552;DHT22;22559;54.176;12.102;2023-05-07T06:41:07;11.00;99.90
36552;DHT22;22559;54.176;12.102;2023-05-07T06:43:33;11.30;99.90
36552;DHT22;22559;54.176;12.102;2023-05-07T06:45:59;11.70;99.90
36552;DHT22;22559;54.176;12.102;2023-05-07T06:48:24;11.90;99.90
36552;DHT22;22559;54.176;12.102;2023-05-07T06:50:50;12.00;99.90
36552;DHT22;22559;54.176;12.102;2023-05-07T06:53:16;12.00;99.90
36552;DHT22;22559;54.176;12.102;2023-05-07T06:55:41;11.90;99.90
36552;DHT22;22559;54.176;12.102;2023-05-07T06:58:07;11.90;99.90
36552;DHT22;22559;54.176;12.102;2023-05-07T07:00:33;12.00;99.90
36552;DHT22;22559;54.176;12.102;2023-05-07T07:02:58;12.30;99.90
36552;DHT22;22559;54.176;12.102;2023-05-07T07:05:25;12.40;99.90
36552;DHT22;22559;54.176;12.102;2023-05-07T07:07:51;12.70;99.90
36552;DHT22;22559;54.176;12.102;2023-05-07T07:10:20;12.80;99.90
36552;DHT22;22559;54.176;12.102;2023-05-07T07:12:45;12.90;99.90
36552;DHT22;22559;54.176;12.102;2023-05-07T07:15:11;13.00;99.90
36552;DHT22;22559;54.176;12.102;2023-05-07T07:17:37;13.00;99.90
36552;DHT22;22559;54.176;12.102;2023-05-07T07:20:03;13.00;99.90
36552;DHT22;22559;54.176;12.102;2023-05-07T07:22:29;13.10;99.90
36552;DHT22;22559;54.176;12.102;2023-05-07T07:24:54;13.10;99.90
36552;DHT22;22559;54.176;12.102;2023-05-07T07:27:20;13.20;99.90
36552;DHT22;22559;54.176;12.102;2023-05-07T07:29:46;13.30;99.90
36552;DHT22;22559;54.176;12.102;2023-05-07T07:32:11;13.50;99.90
36552;DHT22;22559;54.176;12.102;2023-05-07T07:34:37;13.60;99.90
36552;DHT22;22559;54.176;12.102;2023-05-07T07:37:02;13.70;99.90
36552;DHT22;22559;54.176;12.102;2023-05-07T07:39:32;13.50;99.90
36552;DHT22;22559;54.176;12.102;2023-05-07T07:41:57;13.50;99.90
36552;DHT22;22559;54.176;12.102;2023-05-07T07:44:23;13.50;99.90
36552;DHT22;22559;54.176;12.102;2023-05-07T07:46:49;13.30;99.90
36552;DHT22;22559;54.176;12.102;2023-05-07T07:49:15;13.20;99.90
36552;DHT22;22559;54.176;12.102;2023-05-07T07:51:41;13.30;99.90
36552;DHT22;22559;54.176;12.102;2023-05-07T07:54:07;13.20;99.90
36552;DHT22;22559;54.176;12.102;2023-05-07T07:56:33;13.20;99.90
36552;DHT22;22559;54.176;12.102;2023-05-07T07:58:59;13.10;99.90
36552;DHT22;22559;54.176;12.102;2023-05-07T08:01:25;13.20;99.90
36552;DHT22;22559;54.176;12.102;2023-05-07T08:03:51;13.40;99.90
36552;DHT22;22559;54.176;12.102;2023-05-07T08:06:17;13.70;99.90
36552;DHT22;22559;54.176;12.102;2023-05-07T08:08:43;13.80;99.90
36552;DHT22;22559;54.176;12.102;2023-05-07T08:11:09;13.90;99.90
36552;DHT22;22559;54.176;12.102;2023-05-07T08:13:34;14.10;99.90
36552;DHT22;22559;54.176;12.102;2023-05-07T08:16:00;14.10;99.90
36552;DHT22;22559;54.176;12.102;2023-05-07T08:18:26;14.20;99.90
36552;DHT22;22559;54.176;12.102;2023-05-07T08:20:53;14.50;99.90
36552;DHT22;22559;54.176;12.102;2023-05-07T08:23:19;14.70;99.90
36552;DHT22;22559;54.176;12.102;2023-05-07T08:25:45;14.90;99.90
36552;DHT22;22559;54.176;12.102;2023-05-07T08:28:11;15.00;99.90
36552;DHT22;22559;54.176;12.102;2023-05-07T08:30:36;14.80;99.90
36552;DHT22;22559;54.176;12.102;2023-05-07T08:33:02;14.70;99.90
36552;DHT22;22559;54.176;12.102;2023-05-07T08:35:28;14.90;99.90
36552;DHT22;22559;54.176;12.102;2023-05-07T08:37:54;15.10;99.90
36552;DHT22;22559;54.176;12.102;2023-05-07T08:40:22;15.30;99.90
36552;DHT22;22559;54.176;12.102;2023-05-07T08:42:50;15.60;99.90
36552;DHT22;22559;54.176;12.102;2023-05-07T08:45:18;15.80;99.90
36552;DHT22;22559;54.176;12.102;2023-05-07T08:47:46;15.80;99.90
36552;DHT22;22559;54.176;12.102;2023-05-07T08:50:13;15.80;99.90
36552;DHT22;22559;54.176;12.102;2023-05-07T08:52:42;15.80;99.90
36552;DHT22;22559;54.176;12.102;2023-05-07T08:55:09;16.50;99.90
36552;DHT22;22559;54.176;12.102;2023-05-07T08:57:35;16.70;99.90
36552;DHT22;22559;54.176;12.102;2023-05-07T09:00:02;16.70;99.90
36552;DHT22;22559;54.176;12.102;2023-05-07T09:02:28;16.60;99.90
36552;DHT22;22559;54.176;12.102;2023-05-07T09:04:54;16.50;99.90
36552;DHT22;22559;54.176;12.102;2023-05-07T09:07:21;16.40;99.90
36552;DHT22;22559;54.176;12.102;2023-05-07T09:09:47;16.50;99.90
36552;DHT22;22559;54.176;12.102;2023-05-07T09:12:13;16.40;99.90
36552;DHT22;22559;54.176;12.102;2023-05-07T09:14:39;16.20;99.90
36552;DHT22;22559;54.176;12.102;2023-05-07T09:17:05;16.10;99.90
36552;DHT22;22559;54.176;12.102;2023-05-07T09:19:31;16.20;99.90
36552;DHT22;22559;54.176;12.102;2023-05-07T09:22:00;16.40;99.90
36552;DHT22;22559;54.176;12.102;2023-05-07T09:24:26;16.60;99.90
36552;DHT22;22559;54.176;12.102;2023-05-07T09:26:54;17.00;99.90
36552;DHT22;22559;54.176;12.102;2023-05-07T09:29:20;17.10;99.90
36552;DHT22;22559;54.176;12.102;2023-05-07T09:31:46;17.30;99.90
36552;DHT22;22559;54.176;12.102;2023-05-07T09:34:12;17.40;99.90
36552;DHT22;22559;54.176;12.102;2023-05-07T09:36:37;17.60;99.90
36552;DHT22;22559;54.176;12.102;2023-05-07T09:39:03;17.20;99.90
36552;DHT22;22559;54.176;12.102;2023-05-07T09:41:30;17.30;99.90
36552;DHT22;22559;54.176;12.102;2023-05-07T09:43:57;17.30;99.90
36552;DHT22;22559;54.176;12.102;2023-05-07T09:46:34;17.30;99.90
36552;DHT22;22559;54.176;12.102;2023-05-07T09:49:02;17.00;99.90
36552;DHT22;22559;54.176;12.102;2023-05-07T09:51:36;16.80;99.90
36552;DHT22;22559;54.176;12.102;2023-05-07T09:54:05;16.80;99.90
36552;DHT22;22559;54.176;12.102;2023-05-07T09:56:32;17.30;99.90
36552;DHT22;22559;54.176;12.102;2023-05-07T09:59:03;17.70;99.90
36552;DHT22;22559;54.176;12.102;2023-05-07T10:01:31;17.70;99.90
36552;DHT22;22559;54.176;12.102;2023-05-07T10:03:57;18.00;99.90
36552;DHT22;22559;54.176;12.102;2023-05-07T10:06:24;17.70;99.90
36552;DHT22;22559;54.176;12.102;2023-05-07T10:08:52;17.50;99.90
36552;DHT22;22559;54.176;12.102;2023-05-07T10:11:18;17.60;99.90
36552;DHT22;22559;54.176;12.102;2023-05-07T10:13:46;17.90;99.90
36552;DHT22;22559;54.176;12.102;2023-05-07T10:16:13;18.00;99.90
36552;DHT22;22559;54.176;12.102;2023-05-07T10:18:41;18.40;99.90
36552;DHT22;22559;54.176;12.102;2023-05-07T10:21:21;18.40;99.90
36552;DHT22;22559;54.176;12.102;2023-05-07T10:23:57;18.40;99.90
36552;DHT22;22559;54.176;12.102;2023-05-07T10:26:24;18.50;99.90
36552;DHT22;22559;54.176;12.102;2023-05-07T10:28:56;18.60;99.90
36552;DHT22;22559;54.176;12.102;2023-05-07T10:31:55;18.50;99.90
36552;DHT22;22559;54.176;12.102;2023-05-07T10:34:29;18.80;99.90
36552;DHT22;22559;54.176;12.102;2023-05-07T10:36:58;18.90;99.90
36552;DHT22;22559;54.176;12.102;2023-05-07T10:39:24;18.80;99.90
36552;DHT22;22559;54.176;12.102;2023-05-07T10:41:50;18.80;99.90
36552;DHT22;22559;54.176;12.102;2023-05-07T10:44:29;18.80;99.90
36552;DHT22;22559;54.176;12.102;2023-05-07T10:47:09;18.80;99.90
36552;DHT22;22559;54.176;12.102;2023-05-07T10:52:22;19.40;99.90
36552;DHT22;22559;54.176;12.102;2023-05-07T10:57:43;19.30;99.90
36552;DHT22;22559;54.176;12.102;2023-05-07T11:05:29;19.60;99.90
36552;DHT22;22559;54.176;12.102;2023-05-07T11:08:00;19.30;99.90
36552;DHT22;22559;54.176;12.102;2023-05-07T11:10:48;19.00;99.90
36552;DHT22;22559;54.176;12.102;2023-05-07T11:13:14;19.30;99.90
36552;DHT22;22559;54.176;12.102;2023-05-07T11:15:45;19.30;99.90
36552;DHT22;22559;54.176;12.102;2023-05-07T11:18:13;19.40;99.90
36552;DHT22;22559;54.176;12.102;2023-05-07T11:20:53;19.40;99.90
36552;DHT22;22559;54.176;12.102;2023-05-07T11:26:08;18.70;99.90
36552;DHT22;22559;54.176;12.102;2023-05-07T11:28:38;19.10;99.90
36552;DHT22;22559;54.176;12.102;2023-05-07T11:31:04;19.30;99.90
36552;DHT22;22559;54.176;12.102;2023-05-07T11:33:31;19.70;99.90
36552;DHT22;22559;54.176;12.102;2023-05-07T11:35:57;20.00;99.90
36552;DHT22;22559;54.176;12.102;2023-05-07T11:38:23;19.90;99.90
36552;DHT22;22559;54.176;12.102;2023-05-07T11:40:54;19.70;99.90
36552;DHT22;22559;54.176;12.102;2023-05-07T11:43:20;19.70;99.90
36552;DHT22;22559;54.176;12.102;2023-05-07T11:45:47;19.80;99.90
36552;DHT22;22559;54.176;12.102;2023-05-07T11:48:13;19.70;99.90
36552;DHT22;22559;54.176;12.102;2023-05-07T11:51:04;20.00;99.90
36552;DHT22;22559;54.176;12.102;2023-05-07T11:53:38;20.60;99.90
36552;DHT22;22559;54.176;12.102;2023-05-07T11:56:12;21.20;99.90
36552;DHT22;22559;54.176;12.102;2023-05-07T11:58:39;21.00;99.90
36552;DHT22;22559;54.176;12.102;2023-05-07T12:01:07;20.60;99.90
36552;DHT22;22559;54.176;12.102;2023-05-07T12:03:35;20.10;99.90
36552;DHT22;22559;54.176;12.102;2023-05-07T12:06:01;19.70;99.90
36552;DHT22;22559;54.176;12.102;2023-05-07T12:08:27;19.20;99.90
36552;DHT22;22559;54.176;12.102;2023-05-07T12:10:54;19.30;99.90
36552;DHT22;22559;54.176;12.102;2023-05-07T12:13:22;19.50;99.90
36552;DHT22;22559;54.176;12.102;2023-05-07T12:15:55;19.90;99.90
36552;DHT22;22559;54.176;12.102;2023-05-07T12:18:22;20.00;99.90
36552;DHT22;22559;54.176;12.102;2023-05-07T12:20:48;19.90;99.90
36552;DHT22;22559;54.176;12.102;2023-05-07T12:23:15;19.80;99.90
36552;DHT22;22559;54.176;12.102;2023-05-07T12:25:43;20.10;99.90
36552;DHT22;22559;54.176;12.102;2023-05-07T12:28:18;20.00;99.90
36552;DHT22;22559;54.176;12.102;2023-05-07T12:30:46;19.70;99.90
36552;DHT22;22559;54.176;12.102;2023-05-07T12:33:20;19.30;99.90
36552;DHT22;22559;54.176;12.102;2023-05-07T12:35:48;19.00;99.90
36552;DHT22;22559;54.176;12.102;2023-05-07T12:38:15;18.70;99.90
36552;DHT22;22559;54.176;12.102;2023-05-07T12:40:49;18.50;99.90
36552;DHT22;22559;54.176;12.102;2023-05-07T12:43:25;19.00;99.90
36552;DHT22;22559;54.176;12.102;2023-05-07T12:45:53;19.60;99.90
36552;DHT22;22559;54.176;12.102;2023-05-07T12:48:20;20.00;99.90
36552;DHT22;22559;54.176;12.102;2023-05-07T12:50:49;20.20;99.90
36552;DHT22;22559;54.176;12.102;2023-05-07T12:53:15;20.30;99.90
36552;DHT22;22559;54.176;12.102;2023-05-07T12:55:45;20.40;99.90
36552;DHT22;22559;54.176;12.102;2023-05-07T12:58:28;20.50;99.90
36552;DHT22;22559;54.176;12.102;2023-05-07T13:00:55;20.40;99.90
36552;DHT22;22559;54.176;12.102;2023-05-07T13:03:36;20.60;99.90
36552;DHT22;22559;54.176;12.102;2023-05-07T13:06:04;20.50;99.90
36552;DHT22;22559;54.176;12.102;2023-05-07T13:08:32;20.30;99.90
36552;DHT22;22559;54.176;12.102;2023-05-07T13:11:02;20.60;99.90
36552;DHT22;22559;54.176;12.102;2023-05-07T13:13:32;20.60;99.90
36552;DHT22;22559;54.176;12.102;2023-05-07T13:16:01;20.60;99.90
36552;DHT22;22559;54.176;12.102;2023-05-07T13:18:29;20.60;99.90
36552;DHT22;22559;54.176;12.102;2023-05-07T13:20:55;20.60;99.90
36552;DHT22;22559;54.176;12.102;2023-05-07T13:23:21;20.50;99.90
36552;DHT22;22559;54.176;12.102;2023-05-07T13:25:47;20.20;99.90
36552;DHT22;22559;54.176;12.102;2023-05-07T13:28:13;20.20;99.90
36552;DHT22;22559;54.176;12.102;2023-05-07T13:30:39;20.00;99.90
36552;DHT22;22559;54.176;12.102;2023-05-07T13:33:06;20.20;99.90
36552;DHT22;22559;54.176;12.102;2023-05-07T13:35:32;20.30;99.90
36552;DHT22;22559;54.176;12.102;2023-05-07T13:37:57;20.40;99.90
36552;DHT22;22559;54.176;12.102;2023-05-07T13:40:24;20.80;99.90
36552;DHT22;22559;54.176;12.102;2023-05-07T13:42:49;20.80;99.90
36552;DHT22;22559;54.176;12.102;2023-05-07T13:45:17;20.80;99.90
36552;DHT22;22559;54.176;12.102;2023-05-07T13:47:43;20.30;99.90
36552;DHT22;22559;54.176;12.102;2023-05-07T13:50:10;20.20;99.90
36552;DHT22;22559;54.176;12.102;2023-05-07T13:52:37;20.40;99.90
36552;DHT22;22559;54.176;12.102;2023-05-07T13:55:03;20.80;99.90
36552;DHT22;22559;54.176;12.102;2023-05-07T13:57:29;20.70;99.90
36552;DHT22;22559;54.176;12.102;2023-05-07T13:59:54;20.80;99.90
36552;DHT22;22559;54.176;12.102;2023-05-07T14:02:20;20.80;99.90
36552;DHT22;22559;54.176;12.102;2023-05-07T14:04:46;20.80;99.90
36552;DHT22;22559;54.176;12.102;2023-05-07T14:07:12;20.80;99.90
36552;DHT22;22559;54.176;12.102;2023-05-07T14:09:37;20.90;99.90
36552;DHT22;22559;54.176;12.102;2023-05-07T14:12:03;21.00;99.90
36552;DHT22;22559;54.176;12.102;2023-05-07T14:14:29;20.80;99.90
36552;DHT22;22559;54.176;12.102;2023-05-07T14:16:54;20.60;99.90
36552;DHT22;22559;54.176;12.102;2023-05-07T14:19:20;20.90;99.90
36552;DHT22;22559;54.176;12.102;2023-05-07T14:21:48;20.80;99.90
36552;DHT22;22559;54.176;12.102;2023-05-07T14:24:13;20.40;99.90
36552;DHT22;22559;54.176;12.102;2023-05-07T14:26:39;20.20;99.90
36552;DHT22;22559;54.176;12.102;2023-05-07T14:29:05;20.00;99.90
36552;DHT22;22559;54.176;12.102;2023-05-07T14:31:30;20.40;99.90
36552;DHT22;22559;54.176;12.102;2023-05-07T14:33:56;20.80;99.90
36552;DHT22;22559;54.176;12.102;2023-05-07T14:36:23;21.00;99.90
36552;DHT22;22559;54.176;12.102;2023-05-07T14:38:52;20.90;99.90
36552;DHT22;22559;54.176;12.102;2023-05-07T14:41:19;21.10;99.90
36552;DHT22;22559;54.176;12.102;2023-05-07T14:43:46;20.60;99.90
36552;DHT22;22559;54.176;12.102;2023-05-07T14:46:18;20.40;99.90
36552;DHT22;22559;54.176;12.102;2023-05-07T14:48:45;20.60;99.90
36552;DHT22;22559;54.176;12.102;2023-05-07T14:51:11;20.70;99.90
36552;DHT22;22559;54.176;12.102;2023-05-07T14:53:37;20.70;99.90
36552;DHT22;22559;54.176;12.102;2023-05-07T14:56:03;20.50;99.90
36552;DHT22;22559;54.176;12.102;2023-05-07T14:58:32;20.20;99.90
36552;DHT22;22559;54.176;12.102;2023-05-07T15:00:58;20.00;99.90
36552;DHT22;22559;54.176;12.102;2023-05-07T15:03:28;20.00;99.90
36552;DHT22;22559;54.176;12.102;2023-05-07T15:05:53;20.20;99.90
36552;DHT22;22559;54.176;12.102;2023-05-07T15:08:19;20.40;99.90
36552;DHT22;22559;54.176;12.102;2023-05-07T15:10:45;20.70;99.90
36552;DHT22;22559;54.176;12.102;2023-05-07T15:13:11;20.30;99.90
36552;DHT22;22559;54.176;12.102;2023-05-07T15:15:38;20.00;99.90
36552;DHT22;22559;54.176;12.102;2023-05-07T15:18:04;20.10;99.90
36552;DHT22;22559;54.176;12.102;2023-05-07T15:20:30;19.70;99.90
36552;DHT22;22559;54.176;12.102;2023-05-07T15:22:56;19.80;99.90
36552;DHT22;22559;54.176;12.102;2023-05-07T15:25:22;19.80;99.90
36552;DHT22;22559;54.176;12.102;2023-05-07T15:27:48;19.70;99.90
36552;DHT22;22559;54.176;12.102;2023-05-07T15:30:14;19.80;99.90
36552;DHT22;22559;54.176;12.102;2023-05-07T15:32:40;20.00;99.90
36552;DHT22;22559;54.176;12.102;2023-05-07T15:35:06;20.00;99.90
36552;DHT22;22559;54.176;12.102;2023-05-07T15:37:33;20.10;99.90